Accueil
METAR-TAF:

METAR-TAF

Aéroports :

Plate-forme pétrolière

P11-b, Pays-Bas

latitude: 52-21-36N, longitude: 3-20-30E, altitude: 24 m

Observation

Le bulletin a été fait il y a 23 minutes, à 09:55 UTC
Vent 5 kt de nord/nord-est, variant entre nord-ouest et est/nord-est
Température 9°C
Humidité 81%
Pression 1009 hPa
Visibilité 10 km ou plus
Ciel couvert à une hauteur de 1600 ft

METAR: EHPG 140955Z AUTO 02005KT 320V060 9999 OVC016 09/06 Q1009

Heure: 12:18 (10:18 UTC)


TAF: absent

Observations et prévisions météorologiques de plus de 4000 aéroports (messages METAR et TAF).

Les stations disponibles sont représentées par des disques jaunes et rouges sur la carte.

Passer la souris dessus pour voir le nom de la station.

Cliquer dessus pour voir les observations et prévisions météorologiques.

Pour changer de carte: cliquez sur les boutons verts avec une croix noire pour zoomer, sur le bouton vert avec un tiret pour effectuer un zoom arrière, ou sur les flèches vertes pour les cartes adjacentes.


METAR-TAF: